createdAt,value
2023-04-08T00:00:21.134Z,1.00
2023-04-08T00:02:47.833Z,1.00
2023-04-08T00:05:14.407Z,1.00
2023-04-08T00:07:41.000Z,1.00
2023-04-08T00:10:07.992Z,1.00
2023-04-08T00:12:34.681Z,1.00
2023-04-08T00:15:01.398Z,1.00
2023-04-08T00:17:28.575Z,1.00
2023-04-08T00:19:56.525Z,1.00
2023-04-08T00:22:23.146Z,1.00
2023-04-08T00:24:49.800Z,1.00
2023-04-08T00:27:16.435Z,1.00
2023-04-08T00:29:43.030Z,1.00
2023-04-08T00:32:10.077Z,1.00
2023-04-08T00:34:37.116Z,1.00
2023-04-08T00:37:03.753Z,1.00
2023-04-08T00:39:30.480Z,1.00
2023-04-08T00:41:57.651Z,1.00
2023-04-08T00:44:24.286Z,1.00
2023-04-08T00:46:51.037Z,1.00
2023-04-08T00:49:17.740Z,1.00
2023-04-08T00:51:44.370Z,1.00
2023-04-08T00:54:11.293Z,1.00
2023-04-08T00:56:38.255Z,1.00
2023-04-08T00:59:05.191Z,1.00
2023-04-08T01:01:34.899Z,1.00
2023-04-08T01:04:09.551Z,1.00
2023-04-08T01:06:51.319Z,1.00
2023-04-08T01:09:18.993Z,1.00
2023-04-08T01:11:48.984Z,1.00
2023-04-08T01:14:17.284Z,1.00
2023-04-08T01:16:44.070Z,1.00
2023-04-08T01:19:17.707Z,1.00
2023-04-08T01:21:44.438Z,1.00
2023-04-08T01:24:20.328Z,1.00
2023-04-08T01:26:47.193Z,1.00
2023-04-08T01:29:14.035Z,1.00
2023-04-08T01:31:41.695Z,1.00
2023-04-08T01:34:08.830Z,1.00
2023-04-08T01:36:37.160Z,1.00
2023-04-08T01:39:05.751Z,1.00
2023-04-08T01:41:34.159Z,1.00
2023-04-08T01:44:00.945Z,1.00
2023-04-08T01:46:27.718Z,1.00
2023-04-08T01:48:54.824Z,1.00
2023-04-08T01:51:22.184Z,1.00
2023-04-08T01:53:49.979Z,1.00
2023-04-08T01:56:16.955Z,1.00
2023-04-08T01:58:46.786Z,1.00
2023-04-08T02:01:16.288Z,1.00
2023-04-08T02:03:44.164Z,1.00
2023-04-08T02:06:11.079Z,1.00
2023-04-08T02:08:38.291Z,1.00
2023-04-08T02:11:05.022Z,1.00
2023-04-08T02:13:31.992Z,1.00
2023-04-08T02:16:07.909Z,1.00
2023-04-08T02:18:35.473Z,1.00
2023-04-08T02:21:22.754Z,1.00
2023-04-08T02:23:51.290Z,1.00
2023-04-08T02:26:19.386Z,1.00
2023-04-08T02:28:48.233Z,1.00
2023-04-08T02:31:17.101Z,1.00
2023-04-08T02:33:45.999Z,1.00
2023-04-08T02:36:13.163Z,1.00
2023-04-08T02:38:40.871Z,1.00
2023-04-08T02:41:07.473Z,1.00
2023-04-08T02:43:34.327Z,1.00
2023-04-08T02:46:05.507Z,1.00
2023-04-08T02:48:32.212Z,1.00
2023-04-08T02:50:58.847Z,1.00
2023-04-08T02:53:25.556Z,1.00
2023-04-08T02:55:52.429Z,1.00
2023-04-08T02:58:19.057Z,1.00
2023-04-08T03:00:46.044Z,1.00
2023-04-08T03:03:12.734Z,1.00
2023-04-08T03:05:39.428Z,1.00
2023-04-08T03:08:06.827Z,1.00
2023-04-08T03:10:33.508Z,1.00
2023-04-08T03:13:00.240Z,1.00
2023-04-08T03:15:27.646Z,2.80
2023-04-08T03:17:54.379Z,1.00
2023-04-08T03:20:20.984Z,1.50
2023-04-08T03:22:47.582Z,2.80
2023-04-08T03:25:14.230Z,6.30
2023-04-08T03:27:40.863Z,6.20
2023-04-08T03:30:07.955Z,8.80
2023-04-08T03:32:34.769Z,8.20
2023-04-08T03:35:02.347Z,7.70
2023-04-08T03:37:28.951Z,9.60
2023-04-08T03:39:56.180Z,11.70
2023-04-08T03:42:22.803Z,14.40
2023-04-08T03:44:49.460Z,14.80
2023-04-08T03:47:16.087Z,16.20
2023-04-08T03:49:42.689Z,15.70
2023-04-08T03:52:09.366Z,17.70
2023-04-08T03:54:35.940Z,17.70
2023-04-08T03:57:02.542Z,16.20
2023-04-08T03:59:29.184Z,16.30
2023-04-08T04:01:56.389Z,18.00
2023-04-08T04:04:23.762Z,18.90
2023-04-08T04:06:50.529Z,20.80
2023-04-08T04:09:17.209Z,19.10
2023-04-08T04:11:43.803Z,18.30
2023-04-08T04:14:10.476Z,19.50
2023-04-08T04:16:37.134Z,20.10
2023-04-08T04:19:03.746Z,21.40
2023-04-08T04:21:30.412Z,20.50
2023-04-08T04:23:57.022Z,20.50
2023-04-08T04:26:23.626Z,19.30
2023-04-08T04:28:50.552Z,21.00
2023-04-08T04:31:21.733Z,18.50
2023-04-08T04:33:48.929Z,19.80
2023-04-08T04:36:15.740Z,20.10
2023-04-08T04:38:43.067Z,19.50
2023-04-08T04:41:09.742Z,20.70
2023-04-08T04:43:36.507Z,21.40
2023-04-08T04:46:06.956Z,23.00
2023-04-08T04:48:33.716Z,23.80
2023-04-08T04:51:01.436Z,23.80
2023-04-08T04:53:29.308Z,25.00
2023-04-08T04:55:55.947Z,26.50
2023-04-08T04:58:22.549Z,25.00
2023-04-08T05:00:49.126Z,24.90
2023-04-08T05:03:16.602Z,24.60
2023-04-08T05:05:43.444Z,25.70
2023-04-08T05:08:11.319Z,26.90
2023-04-08T05:10:40.377Z,27.40
2023-04-08T05:13:06.906Z,28.80
2023-04-08T05:15:33.476Z,29.20
2023-04-08T05:18:00.110Z,28.90
2023-04-08T05:20:27.713Z,29.00
2023-04-08T05:22:54.268Z,29.20
2023-04-08T05:25:21.464Z,29.70
2023-04-08T05:27:48.052Z,32.60
2023-04-08T05:30:14.673Z,33.10
2023-04-08T05:32:41.417Z,33.30
2023-04-08T05:35:09.458Z,36.80
2023-04-08T05:37:36.173Z,36.80
2023-04-08T05:40:03.234Z,59.40
2023-04-08T05:42:29.983Z,39.90
2023-04-08T05:44:56.531Z,41.80
2023-04-08T05:47:23.130Z,40.10
2023-04-08T05:49:51.171Z,41.80
2023-04-08T05:52:17.917Z,43.40
2023-04-08T05:54:44.570Z,43.90
2023-04-08T05:57:11.573Z,46.00
2023-04-08T05:59:38.127Z,43.70
2023-04-08T06:02:04.934Z,43.00
2023-04-08T06:04:31.661Z,41.80
2023-04-08T06:06:59.762Z,41.30
2023-04-08T06:09:26.465Z,44.30
2023-04-08T06:11:53.084Z,45.80
2023-04-08T06:14:20.780Z,39.60
2023-04-08T06:16:47.536Z,36.50
2023-04-08T06:19:14.246Z,34.50
2023-04-08T06:21:40.897Z,33.90
2023-04-08T06:24:07.506Z,28.90
2023-04-08T06:26:34.071Z,30.00
2023-04-08T06:29:02.196Z,36.90
2023-04-08T06:31:28.769Z,32.20
2023-04-08T06:33:55.905Z,38.70
2023-04-08T06:36:22.502Z,37.30
2023-04-08T06:38:49.409Z,41.50
2023-04-08T06:41:16.220Z,43.80
2023-04-08T06:43:42.830Z,42.50
2023-04-08T06:46:09.482Z,41.80
2023-04-08T06:48:37.693Z,43.90
2023-04-08T06:51:04.508Z,45.50
2023-04-08T06:53:32.677Z,48.10
2023-04-08T06:55:59.705Z,53.90
2023-04-08T06:58:26.377Z,56.70
2023-04-08T07:00:56.379Z,56.90
2023-04-08T07:03:23.299Z,50.50
2023-04-08T07:05:50.044Z,49.00
2023-04-08T07:08:16.716Z,51.30
2023-04-08T07:10:43.299Z,52.90
2023-04-08T07:13:10.476Z,56.90
2023-04-08T07:15:37.226Z,55.00
2023-04-08T07:18:04.705Z,58.80
2023-04-08T07:20:32.396Z,57.50
2023-04-08T07:22:59.052Z,56.00
2023-04-08T07:25:25.712Z,57.00
2023-04-08T07:27:52.886Z,56.60
2023-04-08T07:30:19.701Z,56.70
2023-04-08T07:32:46.363Z,61.40
2023-04-08T07:35:13.134Z,60.00
2023-04-08T07:37:39.712Z,60.40
2023-04-08T07:40:06.718Z,64.90
2023-04-08T07:42:33.338Z,61.50
2023-04-08T07:45:00.226Z,68.80
2023-04-08T07:47:27.622Z,64.90
2023-04-08T07:49:54.549Z,58.40
2023-04-08T07:52:21.621Z,56.00
2023-04-08T07:54:48.247Z,55.20
2023-04-08T07:57:15.213Z,60.90
2023-04-08T07:59:42.013Z,62.40
2023-04-08T08:02:08.693Z,60.90
2023-04-08T08:04:35.617Z,64.50
2023-04-08T08:07:02.353Z,65.80
2023-04-08T08:09:30.579Z,65.50
2023-04-08T08:11:58.715Z,60.40
2023-04-08T08:14:26.694Z,56.50
2023-04-08T08:16:54.272Z,57.50
2023-04-08T08:19:21.308Z,47.30
2023-04-08T08:21:47.942Z,47.70
2023-04-08T08:24:14.829Z,50.40
2023-04-08T08:26:41.774Z,52.00
2023-04-08T08:29:08.905Z,52.90
2023-04-08T08:31:35.775Z,48.50
2023-04-08T08:34:02.782Z,46.80
2023-04-08T08:36:29.448Z,45.80
2023-04-08T08:38:56.319Z,53.20
2023-04-08T08:41:23.025Z,53.90
2023-04-08T08:43:49.850Z,57.00
2023-04-08T08:46:17.421Z,58.60
2023-04-08T08:48:44.167Z,57.50
2023-04-08T08:51:11.779Z,55.10
2023-04-08T08:53:38.648Z,53.00
2023-04-08T08:56:17.954Z,53.20
2023-04-08T08:58:45.761Z,55.10
2023-04-08T09:01:32.287Z,55.70
2023-04-08T09:04:16.959Z,50.40
2023-04-08T09:06:48.767Z,42.00
2023-04-08T09:09:15.894Z,40.10
2023-04-08T09:11:43.655Z,35.20
2023-04-08T09:14:20.197Z,31.70
2023-04-08T09:16:47.206Z,29.70
2023-04-08T09:19:14.025Z,32.70
2023-04-08T09:21:43.745Z,32.40
2023-04-08T09:24:26.725Z,26.50
2023-04-08T09:26:53.285Z,23.00
2023-04-08T09:31:56.092Z,25.70
2023-04-08T09:34:23.316Z,23.30
2023-04-08T09:36:50.768Z,24.20
2023-04-08T09:39:17.751Z,25.20
2023-04-08T09:41:44.645Z,18.10
2023-04-08T09:44:12.034Z,10.00
2023-04-08T09:46:44.596Z,5.20
2023-04-08T09:49:23.451Z,10.30
2023-04-08T09:51:53.083Z,9.60
2023-04-08T09:54:22.972Z,10.00
2023-04-08T09:56:53.156Z,7.70
2023-04-08T09:59:21.739Z,6.70
2023-04-08T10:01:53.374Z,8.20
2023-04-08T10:04:21.088Z,11.30
2023-04-08T10:07:08.092Z,6.80
2023-04-08T10:09:34.895Z,8.40
2023-04-08T10:12:03.926Z,9.80
2023-04-08T10:14:31.312Z,7.80
2023-04-08T10:17:16.515Z,8.60
2023-04-08T10:19:43.145Z,8.20
2023-04-08T10:22:35.523Z,2.60
2023-04-08T10:25:22.129Z,1.30
2023-04-08T10:27:48.817Z,4.30
2023-04-08T10:30:27.682Z,4.60
2023-04-08T10:32:57.491Z,6.30
2023-04-08T10:35:31.287Z,4.10
2023-04-08T10:37:58.632Z,2.30
2023-04-08T10:40:25.415Z,2.80
2023-04-08T10:42:55.954Z,1.50
2023-04-08T10:45:22.609Z,1.40
2023-04-08T10:47:49.277Z,2.70
2023-04-08T10:50:17.269Z,6.50
2023-04-08T10:52:50.815Z,6.30
2023-04-08T10:55:22.862Z,7.10
2023-04-08T10:57:50.742Z,6.00
2023-04-08T11:00:32.191Z,7.30
2023-04-08T11:03:06.561Z,5.20
2023-04-08T11:05:33.597Z,1.80
2023-04-08T11:08:00.317Z,1.00
2023-04-08T11:10:28.713Z,1.00
2023-04-08T11:12:55.799Z,1.00
2023-04-08T11:15:24.062Z,1.00
2023-04-08T11:17:51.409Z,1.00
2023-04-08T11:20:18.212Z,1.00
2023-04-08T11:22:45.171Z,1.00
2023-04-08T11:25:11.884Z,1.00
2023-04-08T11:27:39.507Z,1.00
2023-04-08T11:30:09.083Z,1.00
2023-04-08T11:32:36.371Z,1.00
2023-04-08T11:35:05.007Z,1.00
2023-04-08T11:37:38.253Z,1.00
2023-04-08T11:40:08.732Z,1.00
2023-04-08T11:42:35.360Z,1.00
2023-04-08T11:45:09.573Z,1.00
2023-04-08T11:47:36.499Z,1.00
2023-04-08T11:50:03.276Z,1.00
2023-04-08T11:52:49.790Z,1.00
2023-04-08T11:55:26.496Z,1.00
2023-04-08T11:57:53.863Z,1.00
2023-04-08T12:00:20.948Z,1.00
2023-04-08T12:02:51.042Z,1.00
2023-04-08T12:05:17.830Z,1.00
2023-04-08T12:07:44.472Z,1.00
2023-04-08T12:10:11.558Z,1.00
2023-04-08T12:12:38.572Z,1.00
2023-04-08T12:15:05.697Z,1.00
2023-04-08T12:17:32.264Z,1.00
2023-04-08T12:19:58.869Z,1.00
2023-04-08T12:22:25.616Z,1.00
2023-04-08T12:24:52.345Z,1.00
2023-04-08T12:27:18.917Z,1.00
2023-04-08T12:29:46.147Z,1.00
2023-04-08T12:32:13.384Z,1.00
2023-04-08T12:34:39.937Z,1.00
2023-04-08T12:37:06.666Z,1.00
2023-04-08T12:39:33.359Z,1.00
2023-04-08T12:41:59.915Z,1.00
2023-04-08T12:44:26.552Z,1.00
2023-04-08T12:46:53.186Z,1.00
2023-04-08T12:49:19.822Z,1.00
2023-04-08T12:51:46.393Z,1.00
2023-04-08T12:54:13.045Z,1.00
2023-04-08T12:56:39.602Z,1.00
2023-04-08T12:59:06.380Z,1.00
2023-04-08T13:01:33.139Z,1.00
2023-04-08T13:04:00.195Z,1.00
2023-04-08T13:06:28.098Z,1.00
2023-04-08T13:08:54.761Z,1.00
2023-04-08T13:11:21.405Z,1.00
2023-04-08T13:13:48.059Z,1.00
2023-04-08T13:16:15.343Z,1.00
2023-04-08T13:18:42.226Z,1.00
2023-04-08T13:21:09.235Z,1.00
2023-04-08T13:23:35.849Z,1.00
2023-04-08T13:26:02.778Z,1.00
2023-04-08T13:28:29.400Z,1.00
2023-04-08T13:30:56.342Z,1.00
2023-04-08T13:33:23.013Z,1.00
2023-04-08T13:35:49.692Z,1.00
2023-04-08T13:38:16.299Z,1.00
2023-04-08T13:40:43.745Z,1.00
2023-04-08T13:43:10.328Z,1.00
2023-04-08T13:45:36.976Z,1.00
2023-04-08T13:48:04.808Z,1.00
2023-04-08T13:50:31.406Z,1.00
2023-04-08T13:52:58.395Z,1.00
2023-04-08T13:55:25.286Z,1.00
2023-04-08T13:57:51.876Z,1.00
2023-04-08T14:00:18.461Z,1.00
2023-04-08T14:02:45.215Z,1.00
2023-04-08T14:05:11.890Z,1.00
2023-04-08T14:07:38.539Z,1.00
2023-04-08T14:10:05.655Z,1.00
2023-04-08T14:12:32.280Z,1.00
2023-04-08T14:14:58.969Z,1.00
2023-04-08T14:17:25.631Z,1.00
2023-04-08T14:19:52.252Z,1.00
2023-04-08T14:22:19.087Z,1.00
2023-04-08T14:24:46.056Z,1.00
2023-04-08T14:27:12.703Z,1.00
2023-04-08T14:29:39.358Z,1.00
2023-04-08T14:32:06.546Z,1.00
2023-04-08T14:34:33.118Z,1.00
2023-04-08T14:36:59.705Z,1.00
2023-04-08T14:39:26.986Z,1.00
2023-04-08T14:41:53.564Z,1.00
2023-04-08T14:44:20.295Z,1.00
2023-04-08T14:46:47.078Z,1.00
2023-04-08T14:49:13.767Z,1.00
2023-04-08T14:51:40.371Z,1.00
2023-04-08T14:54:06.931Z,1.00
2023-04-08T14:56:33.557Z,1.00
2023-04-08T14:59:00.175Z,1.00
2023-04-08T15:01:28.923Z,1.00
2023-04-08T15:03:55.723Z,1.00
2023-04-08T15:06:22.488Z,1.00
2023-04-08T15:08:49.426Z,1.00
2023-04-08T15:11:16.574Z,1.00
2023-04-08T15:13:43.144Z,1.00
2023-04-08T15:17:00.433Z,1.00
2023-04-08T15:19:27.728Z,1.00
2023-04-08T15:21:54.496Z,1.00
2023-04-08T15:24:21.264Z,1.00
2023-04-08T15:26:47.953Z,1.00
2023-04-08T15:29:14.615Z,1.00
2023-04-08T15:31:41.624Z,1.00
2023-04-08T15:34:08.279Z,1.00
2023-04-08T15:36:37.259Z,1.00
2023-04-08T15:39:04.238Z,1.00
2023-04-08T15:41:32.262Z,1.00
2023-04-08T15:43:58.936Z,1.00
2023-04-08T15:46:25.618Z,1.00
2023-04-08T15:48:52.565Z,1.00
2023-04-08T15:51:20.269Z,1.00
2023-04-08T15:53:47.214Z,1.70
2023-04-08T15:56:17.714Z,1.70
2023-04-08T15:58:45.552Z,3.50
2023-04-08T16:01:12.505Z,6.30
2023-04-08T16:03:39.572Z,4.70
2023-04-08T16:06:06.445Z,4.30
2023-04-08T16:08:34.736Z,5.90
2023-04-08T16:11:03.361Z,6.00
2023-04-08T16:13:30.749Z,7.10
2023-04-08T16:15:58.442Z,8.10
2023-04-08T16:18:25.883Z,8.80
2023-04-08T16:20:53.209Z,9.00
2023-04-08T16:23:20.203Z,8.80
2023-04-08T16:25:46.967Z,12.40
2023-04-08T16:28:13.880Z,11.60
2023-04-08T16:30:43.773Z,13.70
2023-04-08T16:33:13.850Z,13.60
2023-04-08T16:35:40.545Z,16.30
2023-04-08T16:38:07.304Z,17.70
2023-04-08T16:40:34.925Z,17.70
2023-04-08T16:43:04.731Z,18.50
2023-04-08T16:45:32.597Z,18.10
2023-04-08T16:48:00.514Z,20.00
2023-04-08T16:50:28.379Z,22.20
2023-04-08T16:52:55.496Z,24.20
2023-04-08T16:55:22.167Z,24.50
2023-04-08T16:57:49.049Z,24.60
2023-04-08T17:00:17.476Z,24.90
2023-04-08T17:02:47.320Z,26.10
2023-04-08T17:05:14.106Z,28.10
2023-04-08T17:07:41.012Z,31.00
2023-04-08T17:10:08.454Z,30.80
2023-04-08T17:12:36.159Z,34.30
2023-04-08T17:15:03.378Z,33.60
2023-04-08T17:17:30.093Z,34.50
2023-04-08T17:19:56.936Z,36.80
2023-04-08T17:22:23.723Z,37.50
2023-04-08T17:24:50.483Z,39.70
2023-04-08T17:27:17.317Z,39.80
2023-04-08T17:29:44.385Z,39.70
2023-04-08T17:32:12.426Z,41.20
2023-04-08T17:34:40.856Z,41.50
2023-04-08T17:37:09.252Z,42.70
2023-04-08T17:39:40.541Z,45.60
2023-04-08T17:42:08.193Z,46.00
2023-04-08T17:44:34.909Z,47.20
2023-04-08T17:47:05.887Z,45.40
2023-04-08T17:49:32.569Z,49.30
2023-04-08T17:51:59.262Z,51.90
2023-04-08T17:54:26.219Z,52.40
2023-04-08T17:56:53.087Z,53.40
2023-04-08T17:59:19.789Z,53.60
2023-04-08T18:01:46.484Z,53.60
2023-04-08T18:04:13.713Z,55.20
2023-04-08T18:06:40.678Z,57.10
2023-04-08T18:09:07.340Z,57.50
2023-04-08T18:11:33.994Z,58.50
2023-04-08T18:14:00.638Z,59.00
2023-04-08T18:16:27.411Z,59.10
2023-04-08T18:18:54.057Z,58.70
2023-04-08T18:21:22.024Z,61.10
2023-04-08T18:23:49.999Z,61.70
2023-04-08T18:26:17.168Z,66.20
2023-04-08T18:28:43.978Z,70.20
2023-04-08T18:31:10.880Z,69.50
2023-04-08T18:33:38.964Z,70.80
2023-04-08T18:36:07.450Z,72.30
2023-04-08T18:38:36.068Z,70.80
2023-04-08T18:41:04.052Z,70.40
2023-04-08T18:43:30.916Z,72.30
2023-04-08T18:45:58.036Z,73.60
2023-04-08T18:48:24.786Z,74.00
2023-04-08T18:50:51.537Z,75.30
2023-04-08T18:53:18.221Z,74.70
2023-04-08T18:55:45.461Z,75.20
2023-04-08T18:58:12.112Z,76.00
2023-04-08T19:00:41.995Z,96.10
2023-04-08T19:03:10.224Z,80.60
2023-04-08T19:05:37.556Z,75.80
2023-04-08T19:08:04.762Z,72.90
2023-04-08T19:10:33.176Z,70.20
2023-04-08T19:13:00.704Z,70.10
2023-04-08T19:15:28.697Z,68.70
2023-04-08T19:17:56.377Z,67.10
2023-04-08T19:20:23.272Z,67.80
2023-04-08T19:22:50.287Z,91.50
2023-04-08T19:25:17.592Z,64.50
2023-04-08T19:27:45.737Z,64.50
2023-04-08T19:30:12.936Z,57.60
2023-04-08T19:32:39.748Z,57.00
2023-04-08T19:35:07.122Z,56.50
2023-04-08T19:37:33.779Z,56.60
2023-04-08T19:40:00.589Z,53.20
2023-04-08T19:42:27.743Z,53.20
2023-04-08T19:44:55.182Z,54.70
2023-04-08T19:47:22.069Z,55.40
2023-04-08T19:49:48.825Z,58.10
2023-04-08T19:52:15.468Z,54.10
2023-04-08T19:54:43.387Z,53.70
2023-04-08T19:57:11.466Z,52.50
2023-04-08T19:59:38.207Z,51.30
2023-04-08T20:02:05.238Z,48.50
2023-04-08T20:04:32.702Z,45.70
2023-04-08T20:07:03.354Z,44.10
2023-04-08T20:09:32.316Z,45.30
2023-04-08T20:12:04.412Z,45.30
2023-04-08T20:14:31.955Z,45.60
2023-04-08T20:16:59.100Z,43.20
2023-04-08T20:19:26.229Z,41.10
2023-04-08T20:21:53.251Z,39.30
2023-04-08T20:24:20.038Z,40.10
2023-04-08T20:26:47.024Z,41.60
2023-04-08T20:29:13.659Z,42.40
2023-04-08T20:31:40.351Z,45.60
2023-04-08T20:34:07.064Z,48.10
2023-04-08T20:36:34.252Z,49.00
2023-04-08T20:39:00.929Z,53.50
2023-04-08T20:41:27.813Z,54.00
2023-04-08T20:43:54.877Z,55.40
2023-04-08T20:46:22.392Z,56.20
2023-04-08T20:48:49.302Z,58.00
2023-04-08T20:51:17.370Z,60.80
2023-04-08T20:53:44.630Z,66.90
2023-04-08T20:56:11.385Z,71.60
2023-04-08T20:58:38.096Z,75.80
2023-04-08T21:01:04.873Z,80.60
2023-04-08T21:03:32.630Z,84.50
2023-04-08T21:05:59.397Z,89.80
2023-04-08T21:08:26.133Z,92.00
2023-04-08T21:10:54.231Z,94.80
2023-04-08T21:13:21.121Z,98.20
2023-04-08T21:15:47.795Z,99.90
2023-04-08T21:18:14.487Z,99.90
2023-04-08T21:20:41.221Z,99.90
2023-04-08T21:23:08.099Z,99.90
2023-04-08T21:25:34.876Z,99.90
2023-04-08T21:28:02.296Z,99.90
2023-04-08T21:30:29.127Z,99.90
2023-04-08T21:32:55.815Z,99.90
2023-04-08T21:35:23.745Z,99.90
2023-04-08T21:37:50.646Z,99.90
2023-04-08T21:40:17.478Z,99.90
2023-04-08T21:42:44.418Z,99.90
2023-04-08T21:45:11.582Z,99.90
2023-04-08T21:47:38.397Z,99.90
2023-04-08T21:50:06.128Z,99.90
2023-04-08T21:52:32.835Z,99.90
2023-04-08T21:54:59.614Z,99.90
2023-04-08T21:57:26.394Z,99.90
2023-04-08T21:59:53.074Z,99.90
2023-04-08T22:02:19.826Z,99.90
2023-04-08T22:04:46.738Z,99.90
2023-04-08T22:07:13.515Z,99.90
2023-04-08T22:09:40.352Z,99.90
2023-04-08T22:12:08.671Z,99.90
2023-04-08T22:14:35.314Z,99.90
2023-04-08T22:17:02.211Z,99.90
2023-04-08T22:19:28.987Z,99.90
2023-04-08T22:21:55.825Z,99.90
2023-04-08T22:24:22.549Z,99.90
2023-04-08T22:26:49.289Z,99.90
2023-04-08T22:29:16.205Z,99.90
2023-04-08T22:31:42.857Z,99.90
2023-04-08T22:34:09.573Z,99.90
2023-04-08T22:36:36.264Z,99.90
2023-04-08T22:39:03.814Z,99.90
2023-04-08T22:41:30.562Z,99.90
2023-04-08T22:43:57.263Z,99.90
2023-04-08T22:46:23.944Z,99.90
2023-04-08T22:48:50.816Z,99.90
2023-04-08T22:51:17.840Z,99.90
2023-04-08T22:53:44.457Z,99.90
2023-04-08T22:56:11.392Z,99.90
2023-04-08T22:58:38.086Z,99.90
2023-04-08T23:01:16.901Z,99.90
2023-04-08T23:03:44.334Z,99.90
2023-04-08T23:06:11.413Z,99.90
2023-04-08T23:08:38.665Z,99.90
2023-04-08T23:11:06.607Z,99.90
2023-04-08T23:13:33.358Z,99.90
2023-04-08T23:16:00.123Z,99.90
2023-04-08T23:18:27.714Z,99.90
2023-04-08T23:20:58.276Z,99.90
2023-04-08T23:23:25.394Z,99.90
2023-04-08T23:25:55.341Z,99.90
2023-04-08T23:28:22.624Z,99.90
2023-04-08T23:30:49.647Z,99.90
2023-04-08T23:33:16.970Z,99.90
2023-04-08T23:35:43.846Z,99.90
2023-04-08T23:38:10.556Z,99.90
2023-04-08T23:40:37.311Z,99.90
2023-04-08T23:43:04.092Z,99.90
2023-04-08T23:45:30.800Z,99.90
2023-04-08T23:47:57.531Z,99.90
2023-04-08T23:50:24.287Z,99.90
2023-04-08T23:52:51.166Z,99.90
2023-04-08T23:55:17.837Z,99.90
2023-04-08T23:57:44.621Z,99.90
